Time;durP1;ratioP1;P1;durP2;ratioP2;P2;SDS_P1;SDS_P2;PMS_P1;PMS_P2;Temp;Humidity;BMP_temperature;BMP_pressure;BME280_temperature;BME280_humidity;BME280_pressure;Samples;Min_cycle;Max_cycle;Signal;HPM_P1;HPM_P2
2022/06/14 00:01:01;;;;;;;14.27;5.35;;;;;;;11.12;68.09;102360.31;5001567;28;20091;-80
2022/06/14 00:03:48;;;;;;;14.25;5.90;;;;;;;11.06;68.74;102366.00;5005543;28;20022;-79
2022/06/14 00:06:21;;;;;;;15.15;6.13;;;;;;;11.00;68.49;102361.84;5013593;28;20042;-80
2022/06/14 00:08:46;;;;;;;16.30;6.72;;;;;;;11.03;68.66;102372.31;5010417;28;20121;-80
2022/06/14 00:11:22;;;;;;;17.70;7.00;;;;;;;10.98;68.59;102370.88;5013656;28;20101;-80
2022/06/14 00:13:48;;;;;;;15.13;6.75;;;;;;;10.96;69.21;102368.28;5013650;28;20120;-80
2022/06/14 00:16:15;;;;;;;16.73;6.70;;;;;;;10.88;69.53;102371.34;5013347;28;20390;-80
2022/06/14 00:18:40;;;;;;;14.80;7.05;;;;;;;10.90;69.59;102366.81;5009373;28;20027;-80
2022/06/14 00:21:06;;;;;;;16.38;6.88;;;;;;;10.86;69.37;102359.94;5014512;28;20489;-80
2022/06/14 00:23:32;;;;;;;15.05;6.38;;;;;;;10.83;69.25;102365.44;5000198;28;20034;-80
2022/06/14 00:25:59;;;;;;;12.95;6.25;;;;;;;10.80;70.06;102364.75;5011833;28;20085;-79
2022/06/14 00:28:28;;;;;;;13.55;6.38;;;;;;;10.76;69.72;102360.50;5013040;28;20132;-79
2022/06/14 00:30:56;;;;;;;20.48;7.68;;;;;;;10.71;69.79;102366.09;5010909;28;20030;-79
2022/06/14 00:33:22;;;;;;;16.52;7.55;;;;;;;10.71;70.17;102366.94;5014518;28;20105;-80
2022/06/14 00:35:47;;;;;;;13.27;6.47;;;;;;;10.71;70.12;102363.44;4999666;28;20104;-79
2022/06/14 00:38:15;;;;;;;18.20;6.93;;;;;;;10.66;70.63;102362.81;5006851;28;20030;-80
2022/06/14 00:40:48;;;;;;;16.83;6.65;;;;;;;10.63;70.79;102360.31;4998707;28;20037;-79
2022/06/14 00:43:16;;;;;;;14.90;7.30;;;;;;;10.61;70.91;102351.53;5008325;28;20033;-79
2022/06/14 00:45:41;;;;;;;16.98;7.43;;;;;;;10.54;71.30;102351.88;4997202;28;20115;-80
2022/06/14 00:48:13;;;;;;;17.77;7.43;;;;;;;10.50;70.56;102346.81;5014943;28;20514;-80
2022/06/14 00:50:43;;;;;;;19.08;7.38;;;;;;;10.46;71.11;102346.13;5015384;28;20030;-80
2022/06/14 00:53:37;;;;;;;14.40;6.82;;;;;;;10.51;70.49;102344.06;5004157;28;20117;-80
2022/06/14 00:56:17;;;;;;;16.13;6.82;;;;;;;10.47;71.24;102352.28;4989162;28;20045;-80
2022/06/14 00:59:07;;;;;;;15.02;6.57;;;;;;;10.48;70.90;102346.88;5002912;28;20037;-80
2022/06/14 01:01:38;;;;;;;15.48;6.40;;;;;;;10.38;71.57;102348.31;5015641;28;20030;-80
2022/06/14 01:04:12;;;;;;;15.35;6.45;;;;;;;10.31;71.96;102342.41;5012133;28;20042;-80
2022/06/14 01:06:52;;;;;;;20.83;7.35;;;;;;;10.35;71.68;102346.66;5015358;28;20062;-80
2022/06/14 01:09:29;;;;;;;14.38;6.68;;;;;;;10.30;72.03;102343.34;5005603;28;20441;-80
2022/06/14 01:12:09;;;;;;;12.05;6.55;;;;;;;10.29;71.69;102341.66;5015278;28;20022;-80
2022/06/14 01:14:47;;;;;;;12.88;6.63;;;;;;;10.24;72.07;102346.34;5011166;28;20083;-80
2022/06/14 01:17:14;;;;;;;13.25;6.15;;;;;;;10.19;72.74;102353.66;5013183;28;20034;-80
2022/06/14 01:19:40;;;;;;;19.40;7.50;;;;;;;10.18;72.69;102352.81;4991786;28;20368;-80
2022/06/14 01:22:06;;;;;;;13.02;6.65;;;;;;;10.21;72.59;102351.81;5017247;28;20026;-80
2022/06/14 01:24:36;;;;;;;11.73;6.73;;;;;;;10.23;72.29;102349.91;5017229;28;20418;-80
2022/06/14 01:27:08;;;;;;;14.43;6.13;;;;;;;10.14;71.52;102345.94;4997825;28;20046;-80
2022/06/14 01:29:36;;;;;;;11.57;6.20;;;;;;;10.06;72.16;102337.50;5004353;28;20426;-80
2022/06/14 01:32:05;;;;;;;10.45;5.60;;;;;;;10.05;72.75;102348.19;4999277;28;20371;-80
2022/06/14 01:34:32;;;;;;;13.98;5.55;;;;;;;10.04;72.74;102344.66;5003994;28;20026;-80
2022/06/14 01:36:59;;;;;;;12.13;5.63;;;;;;;9.94;72.97;102338.09;5016545;28;20379;-80
2022/06/14 01:39:25;;;;;;;14.35;5.47;;;;;;;9.97;72.66;102333.50;5005205;28;20113;-80
2022/06/14 01:42:09;;;;;;;14.43;5.85;;;;;;;9.94;72.82;102336.34;4998339;28;20056;-80
2022/06/14 01:44:46;;;;;;;11.52;5.45;;;;;;;9.91;72.95;102332.94;5016067;28;20026;-80
2022/06/14 01:47:29;;;;;;;13.95;5.88;;;;;;;9.91;72.52;102333.81;5013756;28;20486;-80
2022/06/14 01:53:12;;;;;;;12.55;5.22;;;;;;;9.93;72.10;102339.06;5015391;28;20056;-80
2022/06/14 01:56:20;;;;;;;12.30;5.55;;;;;;;9.90;71.70;102331.25;5036620;28;20025;-81
2022/06/14 01:59:16;;;;;;;12.23;5.45;;;;;;;9.79;72.21;102322.03;5021614;28;20098;-79
2022/06/14 02:01:53;;;;;;;10.27;5.65;;;;;;;9.73;73.04;102324.13;5035561;28;20044;-81
2022/06/14 02:04:56;;;;;;;12.10;4.93;;;;;;;9.75;72.67;102323.09;5029629;28;20498;-80
2022/06/14 02:07:50;;;;;;;12.57;5.22;;;;;;;9.75;71.91;102316.94;5000950;28;20113;-80
2022/06/14 02:10:39;;;;;;;11.95;5.13;;;;;;;9.66;72.13;102318.25;5014740;28;20470;-80
2022/06/14 02:13:14;;;;;;;10.95;5.22;;;;;;;9.59;72.94;102312.41;5007923;28;20185;-80
2022/06/14 02:15:52;;;;;;;13.30;5.32;;;;;;;9.56;73.04;102312.53;4997390;28;20537;-80
2022/06/14 02:18:42;;;;;;;9.38;5.00;;;;;;;9.59;72.40;102316.81;5005317;28;20042;-80
2022/06/14 02:21:31;;;;;;;12.07;5.03;;;;;;;9.58;72.40;102312.47;5014352;28;20108;-80
2022/06/14 02:24:21;;;;;;;10.50;5.00;;;;;;;9.53;72.72;102311.84;5004551;28;20018;-81
2022/06/14 02:27:02;;;;;;;11.07;4.60;;;;;;;9.46;73.13;102305.97;5055545;23;20041;-55
2022/06/14 02:29:37;;;;;;;11.40;5.18;;;;;;;9.44;73.48;102302.50;5002336;28;20041;-56
2022/06/14 02:32:15;;;;;;;13.65;4.88;;;;;;;9.43;73.31;102300.81;5012558;28;20473;-56
2022/06/14 02:34:55;;;;;;;9.98;4.95;;;;;;;9.39;72.75;102300.09;4993253;28;20580;-58
2022/06/14 02:37:28;;;;;;;8.57;4.60;;;;;;;9.40;73.29;102301.81;5014016;28;20042;-57
2022/06/14 02:39:57;;;;;;;10.43;4.50;;;;;;;9.33;73.50;102303.03;5009224;28;20033;-58
2022/06/14 02:42:30;;;;;;;9.80;4.68;;;;;;;9.35;73.28;102303.81;5013219;28;20531;-57
2022/06/14 02:45:04;;;;;;;12.70;4.85;;;;;;;9.33;73.47;102300.41;5012534;28;20388;-57
2022/06/14 02:47:55;;;;;;;11.10;4.53;;;;;;;9.31;73.47;102296.97;5014040;28;20030;-57
2022/06/14 02:50:27;;;;;;;8.73;4.22;;;;;;;9.33;73.39;102288.94;4983526;28;20038;-57
2022/06/14 02:53:01;;;;;;;10.48;4.35;;;;;;;9.28;73.44;102289.16;5013398;28;20052;-57
2022/06/14 02:55:46;;;;;;;8.68;4.45;;;;;;;9.30;72.81;102297.88;5007538;28;20026;-58
2022/06/14 02:58:23;;;;;;;10.88;4.70;;;;;;;9.28;73.51;102298.91;5005927;28;20339;-58
2022/06/14 03:00:57;;;;;;;14.38;5.22;;;;;;;9.26;73.36;102294.53;4988373;28;20026;-58
2022/06/14 03:03:44;;;;;;;12.32;5.18;;;;;;;9.26;73.18;102288.38;5013484;28;20412;-57
2022/06/14 03:06:17;;;;;;;9.30;4.57;;;;;;;9.22;73.68;102292.09;5004611;28;20030;-57
2022/06/14 03:09:08;;;;;;;11.27;4.68;;;;;;;9.23;73.56;102293.81;5000799;28;20030;-57
2022/06/14 03:11:53;;;;;;;8.52;4.35;;;;;;;9.16;73.66;102301.22;5008936;28;20034;-57
2022/06/14 03:14:28;;;;;;;8.88;4.35;;;;;;;9.11;73.93;102292.63;5002026;28;20381;-57
2022/06/14 03:17:06;;;;;;;9.27;4.63;;;;;;;9.01;74.12;102288.66;5007159;28;20030;-57
2022/06/14 03:19:49;;;;;;;9.57;4.85;;;;;;;9.05;73.70;102295.53;5003571;28;20033;-57
2022/06/14 03:22:35;;;;;;;7.18;4.63;;;;;;;9.05;73.65;102299.03;4992855;28;20409;-57
2022/06/14 03:25:10;;;;;;;11.00;5.07;;;;;;;9.01;74.43;102302.78;5007639;28;20072;-57
2022/06/14 03:27:41;;;;;;;9.38;4.60;;;;;;;8.99;74.47;102301.13;4982661;28;20501;-58
2022/06/14 03:30:12;;;;;;;12.85;5.13;;;;;;;8.94;74.15;102303.13;4993386;28;20516;-58
2022/06/14 03:32:40;;;;;;;11.32;5.00;;;;;;;8.96;74.39;102302.13;4989553;28;20506;-57
2022/06/14 03:35:16;;;;;;;9.93;4.50;;;;;;;8.90;74.54;102302.41;4975836;28;20049;-58
2022/06/14 03:37:41;;;;;;;10.30;5.00;;;;;;;8.86;74.88;102301.69;4992296;28;20061;-57
2022/06/14 03:40:14;;;;;;;11.07;5.35;;;;;;;8.80;74.85;102296.66;4992870;28;20112;-57
2022/06/14 03:42:40;;;;;;;10.63;5.07;;;;;;;8.84;75.03;102298.28;4992722;28;20026;-57
2022/06/14 03:45:09;;;;;;;9.77;5.30;;;;;;;8.80;75.28;102293.19;4993172;28;20030;-57
2022/06/14 03:47:35;;;;;;;10.43;5.17;;;;;;;8.83;75.23;102298.34;4992982;28;20120;-57
2022/06/14 03:50:13;;;;;;;10.23;5.35;;;;;;;8.80;75.06;102299.31;4991379;28;20034;-58
2022/06/14 03:52:56;;;;;;;13.77;4.97;;;;;;;8.80;75.17;102301.13;4992992;28;20030;-58
2022/06/14 03:55:39;;;;;;;8.85;4.95;;;;;;;8.80;75.09;102298.47;4986186;28;20037;-57
2022/06/14 03:58:31;;;;;;;9.65;4.82;;;;;;;8.78;75.11;102292.41;4992140;28;20398;-57
2022/06/14 04:01:21;;;;;;;9.35;4.90;;;;;;;8.70;76.02;102298.03;4992913;28;20174;-57
2022/06/14 04:04:05;;;;;;;10.35;5.60;;;;;;;8.71;76.17;102297.13;4993023;28;20031;-57
2022/06/14 04:06:40;;;;;;;14.70;6.25;;;;;;;8.77;75.87;102311.84;4981408;28;20068;-57
2022/06/14 04:09:48;;;;;;;13.73;5.97;;;;;;;8.79;75.45;102300.28;4991287;28;20389;-57
2022/06/14 04:12:38;;;;;;;11.27;6.30;;;;;;;8.79;76.02;102308.22;4992547;28;20045;-57
2022/06/14 04:15:33;;;;;;;12.10;6.53;;;;;;;8.85;74.93;102309.72;4981566;28;20022;-58
2022/06/14 04:18:34;;;;;;;11.20;6.22;;;;;;;8.78;76.07;102309.13;4992772;28;20125;-57
2022/06/14 04:20:57;;;;;;;10.57;6.05;;;;;;;8.82;75.65;102309.84;4987567;28;20035;-57
2022/06/14 04:23:44;;;;;;;12.65;6.22;;;;;;;8.82;75.53;102305.41;4992829;28;20172;-57
2022/06/14 04:26:34;;;;;;;12.45;6.38;;;;;;;8.90;75.48;102313.00;4988319;28;20043;-58
2022/06/14 04:29:33;;;;;;;16.08;6.25;;;;;;;8.95;74.97;102315.47;4979119;28;20031;-57
2022/06/14 04:32:17;;;;;;;11.57;5.95;;;;;;;8.97;75.27;102311.78;4986871;28;20113;-57
2022/06/14 04:35:04;;;;;;;12.30;6.28;;;;;;;9.02;76.33;102309.78;4990294;28;20453;-58
2022/06/14 04:37:35;;;;;;;12.13;6.00;;;;;;;9.11;77.00;102313.81;4988992;28;20038;-57
2022/06/14 04:40:03;;;;;;;14.57;6.63;;;;;;;9.22;77.01;102315.94;4974061;28;20065;-58
2022/06/14 04:43:01;;;;;;;13.63;6.75;;;;;;;9.29;76.15;102312.06;4992333;28;20425;-58
2022/06/14 04:45:40;;;;;;;10.93;5.78;;;;;;;9.42;76.66;102320.31;4983923;28;20049;-57
2022/06/14 04:48:33;;;;;;;14.63;6.60;;;;;;;9.54;76.12;102313.53;4992562;28;20038;-58
2022/06/14 04:51:07;;;;;;;9.63;6.03;;;;;;;9.68;76.25;102312.88;4972868;28;20371;-57
2022/06/14 04:53:42;;;;;;;12.52;6.50;;;;;;;9.82;76.23;102319.22;4991987;28;20109;-57
2022/06/14 04:56:20;;;;;;;17.63;6.18;;;;;;;10.00;75.84;102316.56;4992428;28;20049;-57
2022/06/14 04:59:14;;;;;;;10.80;6.47;;;;;;;10.17;75.25;102313.94;4991626;28;20054;-57
2022/06/14 05:02:03;;;;;;;14.75;6.22;;;;;;;10.37;75.04;102312.06;4985160;28;20428;-57
2022/06/14 05:04:48;;;;;;;15.10;6.70;;;;;;;10.54;74.64;102314.69;4982938;28;20049;-58
2022/06/14 05:07:18;;;;;;;12.43;5.80;;;;;;;10.73;74.21;102316.38;4989385;28;20474;-58
2022/06/14 05:09:58;;;;;;;9.52;6.18;;;;;;;10.90;73.92;102318.09;4983572;28;20026;-57
2022/06/14 05:12:27;;;;;;;13.10;6.40;;;;;;;11.05;74.54;102317.25;4992432;28;20110;-58
2022/06/14 05:15:05;;;;;;;13.57;6.63;;;;;;;11.27;73.37;102313.41;4992341;28;20028;-58
2022/06/14 05:18:32;;;;;;;9.15;6.68;;;;;;;11.43;72.80;102321.41;4994187;28;20066;-58
2022/06/14 05:21:01;;;;;;;12.52;6.85;;;;;;;11.55;73.08;102314.53;4945450;29;20549;-58
2022/06/14 05:23:35;;;;;;;13.68;7.25;;;;;;;11.68;72.87;102314.69;4954126;28;20039;-58
2022/06/14 05:26:21;;;;;;;13.55;7.10;;;;;;;11.74;72.68;102309.84;4983444;28;20045;-59
2022/06/14 05:29:14;;;;;;;16.35;7.05;;;;;;;11.91;72.27;102313.34;4987770;28;20056;-57
2022/06/14 05:31:55;;;;;;;15.20;7.25;;;;;;;12.07;71.98;102313.31;4987637;28;20039;-58
2022/06/14 05:34:59;;;;;;;15.57;7.07;;;;;;;12.29;71.68;102316.41;4996036;28;20022;-57
2022/06/14 05:37:51;;;;;;;14.25;7.00;;;;;;;12.58;71.52;102317.28;4988842;28;20035;-58
2022/06/14 05:40:40;;;;;;;13.85;6.18;;;;;;;12.91;71.33;102318.81;4967792;28;20039;-58
2022/06/14 05:43:22;;;;;;;13.13;5.90;;;;;;;13.21;69.91;102319.63;4993464;28;20386;-58
2022/06/14 05:45:53;;;;;;;14.68;5.63;;;;;;;13.54;69.75;102318.41;4994767;28;20018;-59
2022/06/14 05:48:27;;;;;;;14.57;5.55;;;;;;;13.77;68.30;102309.75;4994527;28;20022;-59
2022/06/14 05:50:55;;;;;;;14.75;4.97;;;;;;;14.08;66.49;102310.34;4993667;28;20390;-58
2022/06/14 05:53:35;;;;;;;9.80;4.85;;;;;;;14.39;66.68;102316.28;4995068;28;20015;-58
2022/06/14 05:56:13;;;;;;;11.73;4.13;;;;;;;14.66;63.79;102312.66;4977107;28;20481;-58
2022/06/14 05:59:06;;;;;;;10.52;3.80;;;;;;;14.86;62.75;102316.59;4977630;28;20034;-58
2022/06/14 06:01:45;;;;;;;11.35;4.38;;;;;;;15.11;63.25;102310.34;4976332;28;20623;-59
2022/06/14 06:04:21;;;;;;;13.70;4.30;;;;;;;15.47;63.05;102319.28;4994427;28;20034;-58
2022/06/14 06:06:50;;;;;;;12.57;4.57;;;;;;;15.74;60.96;102319.06;4992198;28;20397;-58
2022/06/14 06:09:15;;;;;;;;;;;;;;;15.94;62.93;102324.75;4997659;28;20142;-59
2022/06/14 06:11:51;;;;;;;11.13;4.33;;;;;;;16.19;58.66;102319.25;4993258;28;20432;-59
2022/06/14 06:14:28;;;;;;;11.57;4.05;;;;;;;16.52;57.83;102320.28;4992135;28;20117;-59
2022/06/14 06:17:05;;;;;;;12.73;4.57;;;;;;;16.63;57.20;102328.31;4994235;28;20366;-59
2022/06/14 06:19:49;;;;;;;8.40;3.83;;;;;;;16.94;57.35;102327.78;4990709;28;20031;-59
2022/06/14 06:22:20;;;;;;;8.88;3.65;;;;;;;17.15;55.54;102327.84;4991318;28;20034;-59
2022/06/14 06:24:50;;;;;;;9.52;3.95;;;;;;;17.33;54.03;102325.50;4992416;28;20398;-59
2022/06/14 06:27:15;;;;;;;11.40;3.95;;;;;;;17.49;53.28;102331.31;4974574;28;20375;-57
2022/06/14 06:30:04;;;;;;;8.13;3.08;;;;;;;17.71;53.75;102326.84;4992110;28;20026;-59
2022/06/14 06:32:31;;;;;;;9.57;3.10;;;;;;;17.85;51.28;102326.56;4994484;28;20033;-59
2022/06/14 06:35:00;;;;;;;11.10;3.47;;;;;;;18.01;51.31;102320.75;4973233;28;20033;-58
2022/06/14 06:37:35;;;;;;;11.15;3.33;;;;;;;18.23;49.96;102325.16;4986831;28;20079;-59
2022/06/14 06:40:15;;;;;;;10.77;3.60;;;;;;;18.42;49.65;102327.13;4960146;28;20034;-58
2022/06/14 06:43:09;;;;;;;9.32;3.70;;;;;;;18.81;51.44;102329.16;4993033;28;20034;-58
2022/06/14 06:45:39;;;;;;;10.95;3.03;;;;;;;18.91;47.25;102332.75;4989161;28;20122;-58
2022/06/14 06:48:21;;;;;;;6.97;3.10;;;;;;;19.16;48.37;102330.56;4991491;28;20524;-58
2022/06/14 06:50:51;;;;;;;6.75;3.05;;;;;;;19.32;46.18;102325.50;4976067;28;20080;-59
2022/06/14 06:53:17;;;;;;;8.48;3.03;;;;;;;19.46;46.03;102335.03;4991955;28;20041;-59
2022/06/14 06:55:57;;;;;;;7.25;3.22;;;;;;;19.69;46.00;102329.38;4991142;28;20037;-58
2022/06/14 06:58:32;;;;;;;8.52;2.83;;;;;;;19.78;44.00;102334.81;4993672;28;20080;-58
2022/06/14 07:01:02;;;;;;;7.25;3.75;;;;;;;20.02;44.09;102325.44;4992865;28;20045;-58
2022/06/14 07:03:46;;;;;;;9.60;3.22;;;;;;;20.31;46.39;102321.81;4993204;28;20030;-58
2022/06/14 07:06:41;;;;;;;8.10;3.20;;;;;;;20.60;45.84;102324.44;4993703;28;20030;-58
2022/06/14 07:09:33;;;;;;;7.95;3.00;;;;;;;20.74;44.50;102325.00;4980976;28;20049;-58
2022/06/14 07:12:09;;;;;;;9.27;2.85;;;;;;;20.88;41.46;102327.19;4992953;28;20031;-59
2022/06/14 07:14:53;;;;;;;7.68;2.63;;;;;;;20.93;40.41;102330.28;4991532;28;20053;-59
2022/06/14 07:17:34;;;;;;;4.38;2.45;;;;;;;21.13;40.43;102322.94;4991313;28;20100;-58
2022/06/14 07:20:38;;;;;;;9.95;2.83;;;;;;;21.42;42.92;102322.75;4993406;28;20023;-58
2022/06/14 07:23:16;;;;;;;4.93;2.60;;;;;;;21.54;39.33;102323.41;4991776;28;20031;-59
2022/06/14 07:26:01;;;;;;;5.18;2.40;;;;;;;21.80;40.76;102317.25;4992343;28;20397;-59
2022/06/14 07:28:33;;;;;;;7.55;2.70;;;;;;;21.83;38.34;102319.59;4988739;28;20042;-59
2022/06/14 07:31:06;;;;;;;6.30;2.42;;;;;;;22.09;36.60;102318.81;4994324;28;20026;-59
2022/06/14 07:33:33;;;;;;;7.95;2.50;;;;;;;22.20;36.02;102317.69;4994252;28;20028;-58
2022/06/14 07:36:05;;;;;;;5.68;2.10;;;;;;;22.20;34.72;102313.16;4994206;28;20038;-58
2022/06/14 07:38:48;;;;;;;5.65;1.80;;;;;;;22.46;36.77;102325.84;4993429;28;20540;-59
2022/06/14 07:41:22;;;;;;;7.70;2.13;;;;;;;22.52;33.14;102322.50;4992643;28;20027;-59
2022/06/14 07:44:04;;;;;;;7.10;2.83;;;;;;;22.75;36.51;102316.50;4993323;28;20035;-57
2022/06/14 07:46:58;;;;;;;6.18;2.15;;;;;;;22.90;35.02;102318.47;4993187;28;20034;-59
2022/06/14 07:49:42;;;;;;;6.82;2.05;;;;;;;23.30;35.29;102313.38;4992767;28;20030;-58
2022/06/14 07:52:21;;;;;;;4.55;1.90;;;;;;;23.31;35.04;102320.47;4980258;28;20073;-58
2022/06/14 07:54:51;;;;;;;5.88;1.85;;;;;;;23.37;32.81;102325.25;4993194;28;20387;-59
2022/06/14 07:57:22;;;;;;;7.63;1.90;;;;;;;23.50;32.74;102322.03;4981493;28;20115;-59
2022/06/14 08:03:16;;;;;;;6.72;2.70;;;;;;;23.95;33.88;102315.31;4990432;28;20093;-59
2022/06/14 08:05:46;;;;;;;6.85;2.30;;;;;;;24.30;33.25;102315.13;4992739;28;20046;-59
2022/06/14 08:08:17;;;;;;;4.63;2.00;;;;;;;24.42;31.65;102308.28;4992756;28;20038;-59
2022/06/14 08:10:48;;;;;;;6.40;2.65;;;;;;;24.38;32.62;102313.22;4992298;28;20061;-59
2022/06/14 08:13:22;;;;;;;4.53;1.92;;;;;;;24.40;32.37;102307.63;4992481;28;20553;-58
2022/06/14 08:15:52;;;;;;;5.65;1.75;;;;;;;24.65;30.88;102302.97;4992452;28;20030;-58
2022/06/14 08:18:36;;;;;;;5.65;1.92;;;;;;;24.66;31.27;102306.53;4992694;28;20474;-58
2022/06/14 08:21:13;;;;;;;5.65;1.58;;;;;;;24.69;32.50;102298.88;4990903;28;20052;-59
2022/06/14 08:23:46;;;;;;;4.07;1.70;;;;;;;24.71;31.40;102295.97;4992493;28;20110;-58
2022/06/14 08:26:31;;;;;;;5.05;1.88;;;;;;;24.76;31.07;102299.03;4992502;28;20054;-59
2022/06/14 08:29:29;;;;;;;4.15;1.77;;;;;;;25.07;32.81;102288.16;4990299;28;20035;-58
2022/06/14 08:32:01;;;;;;;6.03;1.80;;;;;;;25.16;30.76;102293.56;4985131;28;20050;-58
2022/06/14 08:34:43;;;;;;;4.30;1.70;;;;;;;25.36;31.26;102293.97;4992428;28;20365;-59
2022/06/14 08:37:22;;;;;;;6.35;2.08;;;;;;;25.44;29.11;102283.03;4992108;28;20065;-58
2022/06/14 08:39:57;;;;;;;5.30;1.48;;;;;;;25.56;30.45;102280.72;4992157;28;20042;-59
2022/06/14 08:42:28;;;;;;;5.53;1.70;;;;;;;25.72;29.45;102285.22;4992342;28;20460;-59
2022/06/14 08:45:01;;;;;;;3.38;1.50;;;;;;;25.58;28.96;102282.25;4992039;28;20083;-58
2022/06/14 08:47:36;;;;;;;5.03;1.35;;;;;;;25.64;29.07;102277.94;4992286;28;20038;-57
2022/06/14 08:50:09;;;;;;;7.72;2.20;;;;;;;25.47;28.95;102280.78;4991446;28;20027;-57
2022/06/14 08:52:59;;;;;;;3.45;1.88;;;;;;;25.82;29.73;102291.22;4992489;28;20394;-58
2022/06/14 08:55:57;;;;;;;6.47;1.90;;;;;;;25.87;30.53;102280.63;4994495;28;20026;-58
2022/06/14 08:58:44;;;;;;;3.88;1.90;;;;;;;26.12;30.54;102285.88;4994514;28;20567;-59
2022/06/14 09:01:40;;;;;;;9.20;2.22;;;;;;;26.26;30.32;102287.75;4991600;28;20470;-58
2022/06/14 09:04:05;;;;;;;4.18;1.85;;;;;;;26.55;29.54;102292.38;4994375;28;20462;-59
2022/06/14 09:07:01;;;;;;;4.37;2.00;;;;;;;26.88;30.50;102286.53;4993025;28;20081;-59
2022/06/14 09:09:29;;;;;;;5.03;2.20;;;;;;;26.67;27.90;102284.59;4992438;28;20022;-58
2022/06/14 09:12:26;;;;;;;5.77;1.97;;;;;;;26.86;29.13;102275.00;4994506;28;20029;-59
2022/06/14 09:15:18;;;;;;;6.25;2.17;;;;;;;26.55;28.60;102281.47;4992867;28;20273;-58
2022/06/14 09:17:57;;;;;;;7.55;2.40;;;;;;;26.89;27.60;102288.22;4994389;28;20425;-57
2022/06/14 09:20:38;;;;;;;6.80;2.45;;;;;;;26.74;27.66;102277.34;4994234;28;20070;-58
2022/06/14 09:23:18;;;;;;;5.95;2.25;;;;;;;26.98;27.34;102285.38;4994353;28;20109;-59
2022/06/14 09:25:54;;;;;;;5.75;2.30;;;;;;;27.07;29.12;102279.63;4994492;28;20018;-58
2022/06/14 09:29:11;;;;;;;6.25;2.03;;;;;;;27.44;29.63;102275.00;4994047;28;20053;-59
2022/06/14 09:31:52;;;;;;;3.95;2.03;;;;;;;26.81;27.40;102277.41;4983930;28;20041;-59
2022/06/14 09:34:41;;;;;;;6.75;2.40;;;;;;;27.08;28.73;102275.88;4995538;28;20038;-59
2022/06/14 09:37:21;;;;;;;6.65;2.38;;;;;;;27.28;27.92;102267.91;4995636;28;20080;-59
2022/06/14 09:40:27;;;;;;;5.95;2.10;;;;;;;27.47;28.86;102273.78;4977054;28;20066;-59
2022/06/14 09:43:24;;;;;;;5.28;2.05;;;;;;;27.62;29.00;102262.78;4995141;28;20529;-58
2022/06/14 09:45:52;;;;;;;2.78;1.85;;;;;;;27.56;27.01;102253.47;4989345;28;20035;-59
2022/06/14 09:48:50;;;;;;;6.10;2.30;;;;;;;27.54;28.86;102260.19;4977437;28;20138;-59
2022/06/14 09:51:46;;;;;;;4.68;2.10;;;;;;;27.67;28.37;102252.09;4994590;28;20496;-58
2022/06/14 09:54:36;;;;;;;6.05;2.53;;;;;;;27.81;28.91;102245.72;4994401;28;20037;-59
2022/06/14 09:57:10;;;;;;;6.85;2.40;;;;;;;27.83;27.87;102240.91;4992688;28;20418;-59
2022/06/14 10:00:00;;;;;;;8.85;2.35;;;;;;;27.94;28.66;102242.25;4986678;28;20034;-58
2022/06/14 10:03:05;;;;;;;5.60;2.17;;;;;;;28.32;28.22;102235.56;4994388;28;20121;-59
2022/06/14 10:05:40;;;;;;;4.90;2.10;;;;;;;28.20;26.68;102238.84;4991907;28;20022;-59
2022/06/14 10:08:39;;;;;;;6.78;1.98;;;;;;;28.50;27.10;102241.31;4989266;28;20037;-59
2022/06/14 10:11:29;;;;;;;9.55;2.20;;;;;;;28.54;28.06;102237.13;4986198;28;20029;-59
2022/06/14 10:14:23;;;;;;;4.18;1.90;;;;;;;28.65;27.30;102232.19;4975846;28;20027;-58
2022/06/14 10:16:54;;;;;;;7.25;2.55;;;;;;;28.62;25.22;102235.31;4993117;28;20023;-59
2022/06/14 10:19:43;;;;;;;6.60;2.28;;;;;;;28.63;26.92;102235.13;4990968;28;20467;-59
2022/06/14 10:22:08;;;;;;;4.78;2.30;;;;;;;28.96;25.80;102227.00;4991923;28;20030;-58
2022/06/14 10:24:41;;;;;;;5.53;2.13;;;;;;;28.74;26.10;102229.03;4992866;28;20018;-58
2022/06/14 10:30:19;;;;;;;6.38;2.40;;;;;;;29.00;26.06;102213.75;4978418;28;20053;-59
2022/06/14 10:33:20;;;;;;;6.70;2.22;;;;;;;29.08;26.91;102213.56;4994576;28;20030;-59
2022/06/14 10:36:19;;;;;;;5.28;2.20;;;;;;;29.18;26.84;102201.38;4976497;28;20038;-59
2022/06/14 10:39:13;;;;;;;4.65;1.90;;;;;;;28.78;26.39;102202.97;4994498;28;20050;-59
2022/06/14 10:41:57;;;;;;;7.22;2.40;;;;;;;28.87;26.28;102197.31;4993214;28;20295;-59
2022/06/14 10:44:45;;;;;;;5.95;2.10;;;;;;;29.05;27.84;102192.09;4992709;28;20030;-59
2022/06/14 10:47:48;;;;;;;5.55;2.00;;;;;;;29.15;27.18;102186.22;4993159;28;20455;-59
2022/06/14 10:50:22;;;;;;;5.45;2.72;;;;;;;28.93;25.04;102194.59;4991121;28;20030;-58
2022/06/14 10:52:47;;;;;;;6.45;2.60;;;;;;;29.00;25.46;102191.88;4991250;28;20128;-58
2022/06/14 10:55:34;;;;;;;6.17;2.47;;;;;;;29.25;25.61;102183.09;4990058;28;20061;-57
2022/06/14 10:58:30;;;;;;;5.70;2.30;;;;;;;29.50;27.04;102177.81;4992377;28;20258;-58
2022/06/14 11:01:01;;;;;;;7.53;2.25;;;;;;;29.47;25.07;102176.34;4992442;28;20462;-57
2022/06/14 11:03:44;;;;;;;6.00;2.67;;;;;;;29.63;25.82;102182.44;4990742;28;20069;-58
2022/06/14 11:06:28;;;;;;;5.43;2.30;;;;;;;29.73;25.17;102171.03;4992615;28;20045;-57
2022/06/14 11:09:11;;;;;;;7.47;2.50;;;;;;;30.05;26.74;102172.06;4993109;28;20068;-58
2022/06/14 11:11:51;;;;;;;4.88;2.30;;;;;;;29.97;24.09;102181.34;4993028;28;20074;-58
2022/06/14 11:15:02;;;;;;;5.18;2.80;;;;;;;30.05;24.74;102167.41;4982842;28;20551;-58
2022/06/14 11:17:54;;;;;;;5.53;2.17;;;;;;;29.85;24.63;102158.41;4990551;28;20101;-59
2022/06/14 11:20:31;;;;;;;6.05;2.80;;;;;;;29.75;25.00;102172.53;4990656;28;20371;-58
2022/06/14 11:23:11;;;;;;;3.28;2.45;;;;;;;30.08;25.04;102163.41;4993460;28;20026;-58
2022/06/14 11:25:43;;;;;;;6.22;2.80;;;;;;;29.66;24.25;102158.22;4993097;28;20142;-58
2022/06/14 11:28:36;;;;;;;5.68;2.42;;;;;;;30.15;25.23;102153.25;4985022;28;20097;-58
2022/06/14 11:31:25;;;;;;;6.63;2.63;;;;;;;29.70;24.23;102154.00;4993063;28;20130;-58
2022/06/14 11:34:10;;;;;;;6.20;2.40;;;;;;;29.68;25.06;102144.31;4993336;28;20501;-58
2022/06/14 11:37:04;;;;;;;7.25;2.22;;;;;;;29.88;23.95;102147.03;4988016;28;20065;-58
2022/06/14 11:39:44;;;;;;;4.18;2.13;;;;;;;29.81;24.81;102144.31;4989078;28;20042;-58
2022/06/14 11:42:22;;;;;;;7.15;2.38;;;;;;;29.66;23.62;102139.06;4991453;28;20045;-58
2022/06/14 11:44:55;;;;;;;8.65;2.65;;;;;;;29.84;24.42;102132.94;4991737;28;20197;-58
2022/06/14 11:47:28;;;;;;;6.05;2.53;;;;;;;29.91;24.75;102127.44;4990793;28;20592;-58
2022/06/14 11:50:02;;;;;;;7.35;2.30;;;;;;;29.73;25.81;102130.81;4992474;28;20058;-57
2022/06/14 11:52:41;;;;;;;5.68;2.08;;;;;;;30.01;24.86;102124.22;4989845;28;20030;-57
2022/06/14 11:55:23;;;;;;;5.53;2.03;;;;;;;29.80;24.57;102128.09;4984421;28;20030;-58
2022/06/14 11:58:15;;;;;;;7.43;2.60;;;;;;;29.95;25.08;102119.63;4991479;28;20092;-57
2022/06/14 12:01:06;;;;;;;4.72;1.98;;;;;;;30.11;25.26;102127.38;4992047;28;20061;-57
2022/06/14 12:03:37;;;;;;;7.22;2.20;;;;;;;29.49;23.90;102126.84;4985078;28;20092;-57
2022/06/14 12:06:12;;;;;;;4.78;1.77;;;;;;;29.16;23.71;102120.34;4992292;28;20026;-57
2022/06/14 12:09:10;;;;;;;3.78;1.67;;;;;;;28.82;24.28;102115.06;4990905;28;20142;-58
2022/06/14 12:11:42;;;;;;;4.38;1.90;;;;;;;28.89;25.45;102119.47;4936564;28;20051;-57
2022/06/14 12:14:49;;;;;;;4.22;2.08;;;;;;;29.21;25.28;102111.53;4992731;28;20441;-58
2022/06/14 12:17:26;;;;;;;5.00;2.40;;;;;;;28.87;25.21;102118.84;4981298;28;20034;-57
2022/06/14 12:20:12;;;;;;;6.43;2.45;;;;;;;28.88;25.66;102116.94;4991697;28;20030;-58
2022/06/14 12:22:51;;;;;;;5.82;2.30;;;;;;;28.89;25.96;102110.44;4992823;28;20393;-58
2022/06/14 12:28:25;;;;;;;7.43;2.30;;;;;;;28.46;26.25;102114.31;4995740;28;20581;-58
2022/06/14 12:30:58;;;;;;;6.45;2.33;;;;;;;28.29;26.62;102113.00;4993934;28;20042;-57
2022/06/14 12:33:41;;;;;;;9.05;2.45;;;;;;;28.11;25.93;102100.78;4996442;28;20173;-57
2022/06/14 12:36:18;;;;;;;6.60;2.28;;;;;;;27.87;27.35;102105.66;4986328;28;20105;-57